sensor_id;sensor_type;location;lat;lon;timestamp;P1;durP1;ratioP1;P2;durP2;ratioP2
50547;SDS011;38013;48.810;8.818;2022-08-21T00:02:25;3.95;;;1.30;;
50547;SDS011;38013;48.810;8.818;2022-08-21T00:04:52;4.60;;;1.50;;
50547;SDS011;38013;48.810;8.818;2022-08-21T00:07:19;5.38;;;1.23;;
50547;SDS011;38013;48.810;8.818;2022-08-21T00:09:46;4.85;;;1.70;;
50547;SDS011;38013;48.810;8.818;2022-08-21T00:12:12;3.30;;;1.35;;
50547;SDS011;38013;48.810;8.818;2022-08-21T00:14:39;5.85;;;1.80;;
50547;SDS011;38013;48.810;8.818;2022-08-21T00:17:05;3.72;;;1.42;;
50547;SDS011;38013;48.810;8.818;2022-08-21T00:19:31;6.28;;;2.25;;
50547;SDS011;38013;48.810;8.818;2022-08-21T00:21:58;3.88;;;1.65;;
50547;SDS011;38013;48.810;8.818;2022-08-21T00:24:24;4.28;;;1.70;;
50547;SDS011;38013;48.810;8.818;2022-08-21T00:26:51;3.75;;;1.70;;
50547;SDS011;38013;48.810;8.818;2022-08-21T00:29:17;4.97;;;1.75;;
50547;SDS011;38013;48.810;8.818;2022-08-21T00:31:44;6.35;;;1.85;;
50547;SDS011;38013;48.810;8.818;2022-08-21T00:34:10;4.63;;;1.90;;
50547;SDS011;38013;48.810;8.818;2022-08-21T00:36:37;4.68;;;1.80;;
50547;SDS011;38013;48.810;8.818;2022-08-21T00:39:04;5.10;;;1.90;;
50547;SDS011;38013;48.810;8.818;2022-08-21T00:41:32;6.75;;;1.60;;
50547;SDS011;38013;48.810;8.818;2022-08-21T00:43:59;6.55;;;1.17;;
50547;SDS011;38013;48.810;8.818;2022-08-21T00:46:25;3.95;;;1.30;;
50547;SDS011;38013;48.810;8.818;2022-08-21T00:48:51;3.97;;;1.60;;
50547;SDS011;38013;48.810;8.818;2022-08-21T00:51:19;3.35;;;1.38;;
50547;SDS011;38013;48.810;8.818;2022-08-21T00:53:53;5.07;;;1.40;;
50547;SDS011;38013;48.810;8.818;2022-08-21T00:56:22;5.03;;;1.48;;
50547;SDS011;38013;48.810;8.818;2022-08-21T00:58:49;5.30;;;1.52;;
50547;SDS011;38013;48.810;8.818;2022-08-21T01:01:16;4.05;;;1.30;;
50547;SDS011;38013;48.810;8.818;2022-08-21T01:03:43;4.35;;;1.60;;
50547;SDS011;38013;48.810;8.818;2022-08-21T01:06:09;3.78;;;1.55;;
50547;SDS011;38013;48.810;8.818;2022-08-21T01:08:35;5.40;;;1.48;;
50547;SDS011;38013;48.810;8.818;2022-08-21T01:11:01;2.95;;;1.27;;
50547;SDS011;38013;48.810;8.818;2022-08-21T01:13:29;2.83;;;1.23;;
50547;SDS011;38013;48.810;8.818;2022-08-21T01:15:58;6.00;;;1.45;;
50547;SDS011;38013;48.810;8.818;2022-08-21T01:18:26;6.43;;;1.27;;
50547;SDS011;38013;48.810;8.818;2022-08-21T01:20:58;3.28;;;1.30;;
50547;SDS011;38013;48.810;8.818;2022-08-21T01:23:33;4.45;;;1.30;;
50547;SDS011;38013;48.810;8.818;2022-08-21T01:26:02;3.95;;;1.40;;
50547;SDS011;38013;48.810;8.818;2022-08-21T01:28:31;3.10;;;1.33;;
50547;SDS011;38013;48.810;8.818;2022-08-21T01:31:02;4.38;;;1.20;;
50547;SDS011;38013;48.810;8.818;2022-08-21T01:33:32;3.15;;;1.38;;
50547;SDS011;38013;48.810;8.818;2022-08-21T01:35:58;2.95;;;1.50;;
50547;SDS011;38013;48.810;8.818;2022-08-21T01:38:25;3.45;;;1.65;;
50547;SDS011;38013;48.810;8.818;2022-08-21T01:40:51;4.45;;;1.38;;
50547;SDS011;38013;48.810;8.818;2022-08-21T01:43:17;3.08;;;1.25;;
50547;SDS011;38013;48.810;8.818;2022-08-21T01:45:43;3.30;;;1.38;;
50547;SDS011;38013;48.810;8.818;2022-08-21T01:48:09;5.03;;;1.27;;
50547;SDS011;38013;48.810;8.818;2022-08-21T01:50:34;4.40;;;1.35;;
50547;SDS011;38013;48.810;8.818;2022-08-21T01:53:00;3.30;;;1.50;;
50547;SDS011;38013;48.810;8.818;2022-08-21T01:55:26;3.35;;;1.50;;
50547;SDS011;38013;48.810;8.818;2022-08-21T01:57:52;4.40;;;1.40;;
50547;SDS011;38013;48.810;8.818;2022-08-21T02:00:19;2.88;;;1.38;;
50547;SDS011;38013;48.810;8.818;2022-08-21T02:02:50;4.57;;;1.30;;
50547;SDS011;38013;48.810;8.818;2022-08-21T02:05:16;3.63;;;1.77;;
50547;SDS011;38013;48.810;8.818;2022-08-21T02:07:44;8.02;;;1.70;;
50547;SDS011;38013;48.810;8.818;2022-08-21T02:10:16;3.88;;;1.73;;
50547;SDS011;38013;48.810;8.818;2022-08-21T02:12:51;3.50;;;1.30;;
50547;SDS011;38013;48.810;8.818;2022-08-21T02:15:17;2.70;;;1.25;;
50547;SDS011;38013;48.810;8.818;2022-08-21T02:17:46;2.53;;;1.05;;
50547;SDS011;38013;48.810;8.818;2022-08-21T02:20:17;3.78;;;1.27;;
50547;SDS011;38013;48.810;8.818;2022-08-21T02:22:50;4.10;;;1.45;;
50547;SDS011;38013;48.810;8.818;2022-08-21T02:25:18;5.45;;;1.40;;
50547;SDS011;38013;48.810;8.818;2022-08-21T02:27:48;5.00;;;1.00;;
50547;SDS011;38013;48.810;8.818;2022-08-21T02:30:15;3.28;;;1.20;;
50547;SDS011;38013;48.810;8.818;2022-08-21T02:32:48;2.10;;;1.25;;
50547;SDS011;38013;48.810;8.818;2022-08-21T02:35:14;3.22;;;1.30;;
50547;SDS011;38013;48.810;8.818;2022-08-21T02:37:47;4.10;;;1.02;;
50547;SDS011;38013;48.810;8.818;2022-08-21T02:40:19;3.38;;;1.27;;
50547;SDS011;38013;48.810;8.818;2022-08-21T02:42:48;1.58;;;0.95;;
50547;SDS011;38013;48.810;8.818;2022-08-21T02:45:14;4.40;;;1.38;;
50547;SDS011;38013;48.810;8.818;2022-08-21T02:47:52;4.03;;;1.20;;
50547;SDS011;38013;48.810;8.818;2022-08-21T02:50:27;6.28;;;1.35;;
50547;SDS011;38013;48.810;8.818;2022-08-21T02:53:06;3.47;;;1.33;;
50547;SDS011;38013;48.810;8.818;2022-08-21T02:55:34;2.95;;;1.35;;
50547;SDS011;38013;48.810;8.818;2022-08-21T02:58:03;5.10;;;1.30;;
50547;SDS011;38013;48.810;8.818;2022-08-21T03:00:32;4.47;;;1.58;;
50547;SDS011;38013;48.810;8.818;2022-08-21T03:02:59;4.15;;;1.45;;
50547;SDS011;38013;48.810;8.818;2022-08-21T03:05:26;4.68;;;1.65;;
50547;SDS011;38013;48.810;8.818;2022-08-21T03:07:54;3.85;;;1.83;;
50547;SDS011;38013;48.810;8.818;2022-08-21T03:10:20;3.45;;;1.50;;
50547;SDS011;38013;48.810;8.818;2022-08-21T03:12:47;6.38;;;1.60;;
50547;SDS011;38013;48.810;8.818;2022-08-21T03:15:14;6.00;;;1.48;;
50547;SDS011;38013;48.810;8.818;2022-08-21T03:17:43;4.57;;;1.90;;
50547;SDS011;38013;48.810;8.818;2022-08-21T03:20:12;5.78;;;1.20;;
50547;SDS011;38013;48.810;8.818;2022-08-21T03:22:40;2.60;;;1.40;;
50547;SDS011;38013;48.810;8.818;2022-08-21T03:25:06;3.65;;;1.55;;
50547;SDS011;38013;48.810;8.818;2022-08-21T03:27:33;2.50;;;1.20;;
50547;SDS011;38013;48.810;8.818;2022-08-21T03:29:59;3.30;;;1.27;;
50547;SDS011;38013;48.810;8.818;2022-08-21T03:32:26;4.30;;;1.38;;
50547;SDS011;38013;48.810;8.818;2022-08-21T03:34:52;3.30;;;1.45;;
50547;SDS011;38013;48.810;8.818;2022-08-21T03:37:18;4.13;;;1.52;;
50547;SDS011;38013;48.810;8.818;2022-08-21T03:39:43;3.20;;;1.55;;
50547;SDS011;38013;48.810;8.818;2022-08-21T03:42:10;4.50;;;1.58;;
50547;SDS011;38013;48.810;8.818;2022-08-21T03:44:36;3.10;;;1.33;;
50547;SDS011;38013;48.810;8.818;2022-08-21T03:47:04;3.30;;;1.42;;
50547;SDS011;38013;48.810;8.818;2022-08-21T03:49:30;3.38;;;1.25;;
50547;SDS011;38013;48.810;8.818;2022-08-21T03:51:56;3.75;;;1.70;;
50547;SDS011;38013;48.810;8.818;2022-08-21T03:54:22;3.97;;;1.48;;
50547;SDS011;38013;48.810;8.818;2022-08-21T03:56:48;4.45;;;1.70;;
50547;SDS011;38013;48.810;8.818;2022-08-21T03:59:14;4.38;;;1.77;;
50547;SDS011;38013;48.810;8.818;2022-08-21T04:01:50;3.25;;;1.50;;
50547;SDS011;38013;48.810;8.818;2022-08-21T04:06:47;3.55;;;1.50;;
50547;SDS011;38013;48.810;8.818;2022-08-21T04:09:14;4.88;;;1.55;;
50547;SDS011;38013;48.810;8.818;2022-08-21T04:11:41;3.90;;;1.70;;
50547;SDS011;38013;48.810;8.818;2022-08-21T04:14:07;3.08;;;1.30;;
50547;SDS011;38013;48.810;8.818;2022-08-21T04:16:33;4.63;;;1.90;;
50547;SDS011;38013;48.810;8.818;2022-08-21T04:18:58;4.28;;;1.60;;
50547;SDS011;38013;48.810;8.818;2022-08-21T04:21:24;4.43;;;1.67;;
50547;SDS011;38013;48.810;8.818;2022-08-21T04:23:50;4.68;;;1.75;;
50547;SDS011;38013;48.810;8.818;2022-08-21T04:26:19;3.15;;;1.67;;
50547;SDS011;38013;48.810;8.818;2022-08-21T04:28:45;3.00;;;1.65;;
50547;SDS011;38013;48.810;8.818;2022-08-21T04:31:10;3.38;;;1.42;;
50547;SDS011;38013;48.810;8.818;2022-08-21T04:33:36;6.82;;;1.70;;
50547;SDS011;38013;48.810;8.818;2022-08-21T04:36:02;5.88;;;1.70;;
50547;SDS011;38013;48.810;8.818;2022-08-21T04:38:29;7.38;;;1.85;;
50547;SDS011;38013;48.810;8.818;2022-08-21T04:40:56;4.25;;;1.73;;
50547;SDS011;38013;48.810;8.818;2022-08-21T04:43:22;2.70;;;1.40;;
50547;SDS011;38013;48.810;8.818;2022-08-21T04:45:49;5.25;;;1.35;;
50547;SDS011;38013;48.810;8.818;2022-08-21T04:48:17;4.78;;;1.52;;
50547;SDS011;38013;48.810;8.818;2022-08-21T04:50:50;3.40;;;1.48;;
50547;SDS011;38013;48.810;8.818;2022-08-21T04:53:30;3.45;;;1.30;;
50547;SDS011;38013;48.810;8.818;2022-08-21T04:56:11;2.42;;;1.20;;
50547;SDS011;38013;48.810;8.818;2022-08-21T04:59:03;6.82;;;1.65;;
50547;SDS011;38013;48.810;8.818;2022-08-21T05:01:35;5.22;;;1.80;;
50547;SDS011;38013;48.810;8.818;2022-08-21T05:04:02;4.78;;;1.73;;
50547;SDS011;38013;48.810;8.818;2022-08-21T05:06:31;3.78;;;1.50;;
50547;SDS011;38013;48.810;8.818;2022-08-21T05:09:02;4.82;;;1.67;;
50547;SDS011;38013;48.810;8.818;2022-08-21T05:11:30;4.07;;;2.03;;
50547;SDS011;38013;48.810;8.818;2022-08-21T05:13:56;4.05;;;2.05;;
50547;SDS011;38013;48.810;8.818;2022-08-21T05:16:22;4.47;;;2.08;;
50547;SDS011;38013;48.810;8.818;2022-08-21T05:18:48;4.93;;;1.92;;
50547;SDS011;38013;48.810;8.818;2022-08-21T05:21:15;4.22;;;2.00;;
50547;SDS011;38013;48.810;8.818;2022-08-21T05:23:41;6.10;;;1.90;;
50547;SDS011;38013;48.810;8.818;2022-08-21T05:26:07;5.07;;;2.05;;
50547;SDS011;38013;48.810;8.818;2022-08-21T05:28:33;5.78;;;2.10;;
50547;SDS011;38013;48.810;8.818;2022-08-21T05:30:59;6.45;;;2.20;;
50547;SDS011;38013;48.810;8.818;2022-08-21T05:33:25;5.40;;;1.92;;
50547;SDS011;38013;48.810;8.818;2022-08-21T05:35:52;4.88;;;2.20;;
50547;SDS011;38013;48.810;8.818;2022-08-21T05:38:21;5.35;;;1.98;;
50547;SDS011;38013;48.810;8.818;2022-08-21T05:40:48;5.75;;;2.15;;
50547;SDS011;38013;48.810;8.818;2022-08-21T05:43:14;4.13;;;1.92;;
50547;SDS011;38013;48.810;8.818;2022-08-21T05:45:40;5.38;;;2.22;;
50547;SDS011;38013;48.810;8.818;2022-08-21T05:48:14;4.68;;;2.00;;
50547;SDS011;38013;48.810;8.818;2022-08-21T05:50:49;5.82;;;2.30;;
50547;SDS011;38013;48.810;8.818;2022-08-21T05:53:17;5.47;;;2.17;;
50547;SDS011;38013;48.810;8.818;2022-08-21T05:55:45;6.07;;;2.13;;
50547;SDS011;38013;48.810;8.818;2022-08-21T05:58:12;7.25;;;2.40;;
50547;SDS011;38013;48.810;8.818;2022-08-21T06:00:40;3.92;;;1.73;;
50547;SDS011;38013;48.810;8.818;2022-08-21T06:03:10;6.18;;;2.17;;
50547;SDS011;38013;48.810;8.818;2022-08-21T06:05:52;5.63;;;2.17;;
50547;SDS011;38013;48.810;8.818;2022-08-21T06:08:19;4.80;;;1.98;;
50547;SDS011;38013;48.810;8.818;2022-08-21T06:10:46;5.05;;;2.20;;
50547;SDS011;38013;48.810;8.818;2022-08-21T06:13:14;5.07;;;2.00;;
50547;SDS011;38013;48.810;8.818;2022-08-21T06:15:40;5.88;;;1.95;;
50547;SDS011;38013;48.810;8.818;2022-08-21T06:18:06;5.18;;;2.35;;
50547;SDS011;38013;48.810;8.818;2022-08-21T06:20:32;3.90;;;2.00;;
50547;SDS011;38013;48.810;8.818;2022-08-21T06:22:59;4.95;;;2.10;;
50547;SDS011;38013;48.810;8.818;2022-08-21T06:25:25;4.70;;;2.05;;
50547;SDS011;38013;48.810;8.818;2022-08-21T06:27:51;5.82;;;2.10;;
50547;SDS011;38013;48.810;8.818;2022-08-21T06:30:17;5.50;;;2.30;;
50547;SDS011;38013;48.810;8.818;2022-08-21T06:32:43;5.25;;;1.75;;
50547;SDS011;38013;48.810;8.818;2022-08-21T06:35:09;4.70;;;1.95;;
50547;SDS011;38013;48.810;8.818;2022-08-21T06:37:36;4.85;;;1.85;;
50547;SDS011;38013;48.810;8.818;2022-08-21T06:40:05;5.13;;;2.20;;
50547;SDS011;38013;48.810;8.818;2022-08-21T06:42:32;6.43;;;2.15;;
50547;SDS011;38013;48.810;8.818;2022-08-21T06:44:58;4.63;;;2.10;;
50547;SDS011;38013;48.810;8.818;2022-08-21T06:47:23;6.95;;;2.72;;
50547;SDS011;38013;48.810;8.818;2022-08-21T06:49:49;5.25;;;2.30;;
50547;SDS011;38013;48.810;8.818;2022-08-21T06:52:15;6.05;;;2.58;;
50547;SDS011;38013;48.810;8.818;2022-08-21T06:54:41;4.75;;;2.28;;
50547;SDS011;38013;48.810;8.818;2022-08-21T06:57:07;5.28;;;2.50;;
50547;SDS011;38013;48.810;8.818;2022-08-21T06:59:32;4.85;;;2.05;;
50547;SDS011;38013;48.810;8.818;2022-08-21T07:01:59;5.93;;;2.30;;
50547;SDS011;38013;48.810;8.818;2022-08-21T07:04:25;5.13;;;2.40;;
50547;SDS011;38013;48.810;8.818;2022-08-21T07:06:51;6.78;;;2.75;;
50547;SDS011;38013;48.810;8.818;2022-08-21T07:09:17;6.68;;;2.45;;
50547;SDS011;38013;48.810;8.818;2022-08-21T07:11:43;6.15;;;2.10;;
50547;SDS011;38013;48.810;8.818;2022-08-21T07:14:14;4.22;;;2.20;;
50547;SDS011;38013;48.810;8.818;2022-08-21T07:16:40;5.32;;;2.17;;
50547;SDS011;38013;48.810;8.818;2022-08-21T07:19:06;5.93;;;2.40;;
50547;SDS011;38013;48.810;8.818;2022-08-21T07:21:32;6.35;;;2.50;;
50547;SDS011;38013;48.810;8.818;2022-08-21T07:23:57;6.30;;;2.03;;
50547;SDS011;38013;48.810;8.818;2022-08-21T07:26:23;4.47;;;2.10;;
50547;SDS011;38013;48.810;8.818;2022-08-21T07:28:50;7.65;;;2.47;;
50547;SDS011;38013;48.810;8.818;2022-08-21T07:31:16;6.00;;;2.00;;
50547;SDS011;38013;48.810;8.818;2022-08-21T07:33:44;5.90;;;2.33;;
50547;SDS011;38013;48.810;8.818;2022-08-21T07:36:10;5.93;;;2.30;;
50547;SDS011;38013;48.810;8.818;2022-08-21T07:38:36;7.70;;;2.47;;
50547;SDS011;38013;48.810;8.818;2022-08-21T07:41:04;8.82;;;2.38;;
50547;SDS011;38013;48.810;8.818;2022-08-21T07:43:39;6.40;;;2.50;;
50547;SDS011;38013;48.810;8.818;2022-08-21T07:46:05;10.65;;;2.88;;
50547;SDS011;38013;48.810;8.818;2022-08-21T07:48:31;8.10;;;2.47;;
50547;SDS011;38013;48.810;8.818;2022-08-21T07:50:56;9.38;;;2.80;;
50547;SDS011;38013;48.810;8.818;2022-08-21T07:53:27;7.50;;;3.05;;
50547;SDS011;38013;48.810;8.818;2022-08-21T07:55:56;7.78;;;2.72;;
50547;SDS011;38013;48.810;8.818;2022-08-21T07:58:22;10.13;;;2.97;;
50547;SDS011;38013;48.810;8.818;2022-08-21T08:00:48;9.57;;;3.10;;
50547;SDS011;38013;48.810;8.818;2022-08-21T08:03:14;9.60;;;2.97;;
50547;SDS011;38013;48.810;8.818;2022-08-21T08:05:40;7.28;;;2.45;;
50547;SDS011;38013;48.810;8.818;2022-08-21T08:08:06;6.70;;;2.55;;
50547;SDS011;38013;48.810;8.818;2022-08-21T08:10:32;6.63;;;2.42;;
50547;SDS011;38013;48.810;8.818;2022-08-21T08:12:58;7.88;;;2.72;;
50547;SDS011;38013;48.810;8.818;2022-08-21T08:15:24;7.75;;;2.65;;
50547;SDS011;38013;48.810;8.818;2022-08-21T08:17:51;8.65;;;2.63;;
50547;SDS011;38013;48.810;8.818;2022-08-21T08:20:18;7.85;;;3.10;;
50547;SDS011;38013;48.810;8.818;2022-08-21T08:22:45;5.55;;;2.35;;
50547;SDS011;38013;48.810;8.818;2022-08-21T08:25:12;9.50;;;2.47;;
50547;SDS011;38013;48.810;8.818;2022-08-21T08:27:39;9.52;;;2.70;;
50547;SDS011;38013;48.810;8.818;2022-08-21T08:30:06;7.95;;;2.60;;
50547;SDS011;38013;48.810;8.818;2022-08-21T08:32:35;8.38;;;2.70;;
50547;SDS011;38013;48.810;8.818;2022-08-21T08:35:02;7.70;;;2.65;;
50547;SDS011;38013;48.810;8.818;2022-08-21T08:37:29;7.30;;;2.33;;
50547;SDS011;38013;48.810;8.818;2022-08-21T08:39:55;6.82;;;2.50;;
50547;SDS011;38013;48.810;8.818;2022-08-21T08:42:24;6.32;;;2.55;;
50547;SDS011;38013;48.810;8.818;2022-08-21T08:44:55;7.50;;;2.40;;
50547;SDS011;38013;48.810;8.818;2022-08-21T08:47:30;7.50;;;2.45;;
50547;SDS011;38013;48.810;8.818;2022-08-21T08:50:03;8.20;;;2.67;;
50547;SDS011;38013;48.810;8.818;2022-08-21T08:52:36;9.23;;;2.60;;
50547;SDS011;38013;48.810;8.818;2022-08-21T08:55:13;9.82;;;2.00;;
50547;SDS011;38013;48.810;8.818;2022-08-21T08:58:00;7.75;;;2.20;;
50547;SDS011;38013;48.810;8.818;2022-08-21T09:00:27;6.38;;;2.60;;
50547;SDS011;38013;48.810;8.818;2022-08-21T09:02:55;12.77;;;2.42;;
50547;SDS011;38013;48.810;8.818;2022-08-21T09:05:26;7.10;;;2.47;;
50547;SDS011;38013;48.810;8.818;2022-08-21T09:08:04;6.53;;;2.65;;
50547;SDS011;38013;48.810;8.818;2022-08-21T09:14:36;7.28;;;2.42;;
50547;SDS011;38013;48.810;8.818;2022-08-21T09:20:01;5.95;;;2.40;;
50547;SDS011;38013;48.810;8.818;2022-08-21T09:22:46;9.18;;;2.65;;
50547;SDS011;38013;48.810;8.818;2022-08-21T09:28:33;6.53;;;2.15;;
50547;SDS011;38013;48.810;8.818;2022-08-21T09:31:02;6.55;;;2.45;;
50547;SDS011;38013;48.810;8.818;2022-08-21T09:33:32;7.10;;;2.10;;
50547;SDS011;38013;48.810;8.818;2022-08-21T09:35:58;5.32;;;2.10;;
50547;SDS011;38013;48.810;8.818;2022-08-21T09:38:34;6.80;;;2.28;;
50547;SDS011;38013;48.810;8.818;2022-08-21T09:41:09;9.77;;;2.30;;
50547;SDS011;38013;48.810;8.818;2022-08-21T09:43:35;9.40;;;2.70;;
50547;SDS011;38013;48.810;8.818;2022-08-21T09:46:10;6.32;;;2.17;;
50547;SDS011;38013;48.810;8.818;2022-08-21T09:48:49;6.88;;;2.40;;
50547;SDS011;38013;48.810;8.818;2022-08-21T09:51:23;6.85;;;2.50;;
50547;SDS011;38013;48.810;8.818;2022-08-21T09:53:55;8.95;;;2.40;;
50547;SDS011;38013;48.810;8.818;2022-08-21T09:56:51;7.15;;;1.95;;
50547;SDS011;38013;48.810;8.818;2022-08-21T09:59:39;5.63;;;2.15;;
50547;SDS011;38013;48.810;8.818;2022-08-21T10:04:51;5.78;;;2.17;;
50547;SDS011;38013;48.810;8.818;2022-08-21T10:07:21;8.90;;;2.50;;
50547;SDS011;38013;48.810;8.818;2022-08-21T10:09:59;5.38;;;2.08;;
50547;SDS011;38013;48.810;8.818;2022-08-21T10:22:11;8.38;;;2.53;;
50547;SDS011;38013;48.810;8.818;2022-08-21T10:25:18;8.57;;;2.25;;
50547;SDS011;38013;48.810;8.818;2022-08-21T10:28:00;6.35;;;1.88;;
50547;SDS011;38013;48.810;8.818;2022-08-21T10:36:08;6.13;;;2.13;;
50547;SDS011;38013;48.810;8.818;2022-08-21T10:41:57;7.10;;;2.50;;
50547;SDS011;38013;48.810;8.818;2022-08-21T10:47:51;7.97;;;2.35;;
50547;SDS011;38013;48.810;8.818;2022-08-21T10:56:29;4.78;;;1.98;;
50547;SDS011;38013;48.810;8.818;2022-08-21T10:59:08;4.70;;;2.03;;
50547;SDS011;38013;48.810;8.818;2022-08-21T11:02:00;9.77;;;2.40;;
50547;SDS011;38013;48.810;8.818;2022-08-21T11:07:36;4.55;;;1.88;;
50547;SDS011;38013;48.810;8.818;2022-08-21T11:13:19;4.97;;;1.85;;
50547;SDS011;38013;48.810;8.818;2022-08-21T11:15:56;8.77;;;2.00;;
50547;SDS011;38013;48.810;8.818;2022-08-21T11:18:40;7.60;;;1.90;;
50547;SDS011;38013;48.810;8.818;2022-08-21T11:21:20;4.45;;;1.77;;
50547;SDS011;38013;48.810;8.818;2022-08-21T11:29:29;6.95;;;2.25;;
50547;SDS011;38013;48.810;8.818;2022-08-21T11:32:13;4.38;;;1.73;;
50547;SDS011;38013;48.810;8.818;2022-08-21T11:43:58;5.88;;;1.85;;
50547;SDS011;38013;48.810;8.818;2022-08-21T11:49:25;4.38;;;1.70;;
50547;SDS011;38013;48.810;8.818;2022-08-21T11:52:08;4.93;;;1.88;;
50547;SDS011;38013;48.810;8.818;2022-08-21T11:58:05;4.90;;;1.67;;
50547;SDS011;38013;48.810;8.818;2022-08-21T12:00:52;3.30;;;1.67;;
50547;SDS011;38013;48.810;8.818;2022-08-21T12:03:28;4.85;;;1.80;;
50547;SDS011;38013;48.810;8.818;2022-08-21T12:06:02;4.95;;;1.80;;
50547;SDS011;38013;48.810;8.818;2022-08-21T12:08:37;3.75;;;1.40;;
50547;SDS011;38013;48.810;8.818;2022-08-21T12:16:30;3.90;;;1.58;;
50547;SDS011;38013;48.810;8.818;2022-08-21T12:19:05;5.13;;;1.80;;
50547;SDS011;38013;48.810;8.818;2022-08-21T12:21:58;4.15;;;1.55;;
50547;SDS011;38013;48.810;8.818;2022-08-21T12:24:47;3.13;;;1.53;;
50547;SDS011;38013;48.810;8.818;2022-08-21T12:29:55;3.97;;;1.75;;
50547;SDS011;38013;48.810;8.818;2022-08-21T12:32:30;4.00;;;1.60;;
50547;SDS011;38013;48.810;8.818;2022-08-21T12:35:20;5.05;;;1.80;;
50547;SDS011;38013;48.810;8.818;2022-08-21T12:37:52;4.47;;;1.70;;
50547;SDS011;38013;48.810;8.818;2022-08-21T12:40:47;3.20;;;1.50;;
50547;SDS011;38013;48.810;8.818;2022-08-21T12:43:47;4.53;;;1.83;;
50547;SDS011;38013;48.810;8.818;2022-08-21T12:46:37;4.80;;;1.83;;
50547;SDS011;38013;48.810;8.818;2022-08-21T12:49:15;2.90;;;1.50;;
50547;SDS011;38013;48.810;8.818;2022-08-21T12:54:45;4.50;;;1.60;;
50547;SDS011;38013;48.810;8.818;2022-08-21T12:57:25;4.40;;;1.85;;
50547;SDS011;38013;48.810;8.818;2022-08-21T12:59:54;4.10;;;1.70;;
50547;SDS011;38013;48.810;8.818;2022-08-21T13:02:27;4.45;;;1.70;;
50547;SDS011;38013;48.810;8.818;2022-08-21T13:05:02;3.88;;;1.85;;
50547;SDS011;38013;48.810;8.818;2022-08-21T13:07:32;5.05;;;1.98;;
50547;SDS011;38013;48.810;8.818;2022-08-21T13:12:38;4.65;;;1.60;;
50547;SDS011;38013;48.810;8.818;2022-08-21T13:15:06;5.82;;;1.80;;
50547;SDS011;38013;48.810;8.818;2022-08-21T13:17:34;4.35;;;1.70;;
50547;SDS011;38013;48.810;8.818;2022-08-21T13:20:09;5.57;;;1.85;;
50547;SDS011;38013;48.810;8.818;2022-08-21T13:22:46;6.60;;;1.77;;
50547;SDS011;38013;48.810;8.818;2022-08-21T13:25:13;3.83;;;1.67;;
50547;SDS011;38013;48.810;8.818;2022-08-21T13:27:43;5.22;;;2.20;;
50547;SDS011;38013;48.810;8.818;2022-08-21T13:30:22;3.20;;;1.55;;
50547;SDS011;38013;48.810;8.818;2022-08-21T13:32:52;4.18;;;1.70;;
50547;SDS011;38013;48.810;8.818;2022-08-21T13:38:23;3.75;;;1.73;;
50547;SDS011;38013;48.810;8.818;2022-08-21T13:43:56;4.03;;;1.90;;
50547;SDS011;38013;48.810;8.818;2022-08-21T13:46:28;5.15;;;1.92;;
50547;SDS011;38013;48.810;8.818;2022-08-21T13:49:01;5.03;;;2.05;;
50547;SDS011;38013;48.810;8.818;2022-08-21T13:51:29;3.90;;;1.80;;
50547;SDS011;38013;48.810;8.818;2022-08-21T13:53:56;3.92;;;1.40;;
50547;SDS011;38013;48.810;8.818;2022-08-21T13:56:33;4.10;;;1.42;;
50547;SDS011;38013;48.810;8.818;2022-08-21T13:59:08;4.68;;;1.90;;
50547;SDS011;38013;48.810;8.818;2022-08-21T14:01:38;5.13;;;1.80;;
50547;SDS011;38013;48.810;8.818;2022-08-21T14:04:20;5.63;;;1.92;;
50547;SDS011;38013;48.810;8.818;2022-08-21T14:06:50;4.40;;;1.70;;
50547;SDS011;38013;48.810;8.818;2022-08-21T14:11:54;3.72;;;1.52;;
50547;SDS011;38013;48.810;8.818;2022-08-21T14:14:24;3.85;;;1.60;;
50547;SDS011;38013;48.810;8.818;2022-08-21T14:17:02;5.72;;;1.60;;
50547;SDS011;38013;48.810;8.818;2022-08-21T14:19:39;4.47;;;1.98;;
50547;SDS011;38013;48.810;8.818;2022-08-21T14:22:22;3.33;;;1.70;;
50547;SDS011;38013;48.810;8.818;2022-08-21T14:24:48;4.30;;;1.75;;
50547;SDS011;38013;48.810;8.818;2022-08-21T14:27:16;4.20;;;1.77;;
50547;SDS011;38013;48.810;8.818;2022-08-21T14:29:44;5.10;;;2.10;;
50547;SDS011;38013;48.810;8.818;2022-08-21T14:32:12;3.65;;;1.58;;
50547;SDS011;38013;48.810;8.818;2022-08-21T14:34:44;4.50;;;1.63;;
50547;SDS011;38013;48.810;8.818;2022-08-21T14:37:10;4.78;;;1.85;;
50547;SDS011;38013;48.810;8.818;2022-08-21T14:39:36;5.50;;;1.60;;
50547;SDS011;38013;48.810;8.818;2022-08-21T14:42:02;4.15;;;1.80;;
50547;SDS011;38013;48.810;8.818;2022-08-21T14:44:28;6.07;;;2.10;;
50547;SDS011;38013;48.810;8.818;2022-08-21T14:46:55;5.65;;;1.70;;
50547;SDS011;38013;48.810;8.818;2022-08-21T14:49:21;4.40;;;1.90;;
50547;SDS011;38013;48.810;8.818;2022-08-21T14:51:52;7.78;;;1.95;;
50547;SDS011;38013;48.810;8.818;2022-08-21T14:54:22;6.93;;;1.88;;
50547;SDS011;38013;48.810;8.818;2022-08-21T14:56:49;4.38;;;1.75;;
50547;SDS011;38013;48.810;8.818;2022-08-21T14:59:15;3.97;;;1.85;;
50547;SDS011;38013;48.810;8.818;2022-08-21T15:01:42;4.63;;;2.15;;
50547;SDS011;38013;48.810;8.818;2022-08-21T15:04:08;5.10;;;1.90;;
50547;SDS011;38013;48.810;8.818;2022-08-21T15:06:33;5.70;;;1.77;;
50547;SDS011;38013;48.810;8.818;2022-08-21T15:08:59;3.25;;;1.67;;
50547;SDS011;38013;48.810;8.818;2022-08-21T15:11:27;3.83;;;1.67;;
50547;SDS011;38013;48.810;8.818;2022-08-21T15:13:53;3.92;;;1.58;;
50547;SDS011;38013;48.810;8.818;2022-08-21T15:16:21;4.88;;;1.90;;
50547;SDS011;38013;48.810;8.818;2022-08-21T15:18:48;5.75;;;2.05;;
50547;SDS011;38013;48.810;8.818;2022-08-21T15:21:14;6.38;;;1.90;;
50547;SDS011;38013;48.810;8.818;2022-08-21T15:23:40;7.05;;;2.00;;
50547;SDS011;38013;48.810;8.818;2022-08-21T15:26:06;5.60;;;1.92;;
50547;SDS011;38013;48.810;8.818;2022-08-21T15:28:33;5.32;;;1.63;;
50547;SDS011;38013;48.810;8.818;2022-08-21T15:31:00;8.38;;;2.08;;
50547;SDS011;38013;48.810;8.818;2022-08-21T15:33:26;4.60;;;2.20;;
50547;SDS011;38013;48.810;8.818;2022-08-21T15:35:53;3.88;;;1.80;;
50547;SDS011;38013;48.810;8.818;2022-08-21T15:38:19;4.88;;;2.00;;
50547;SDS011;38013;48.810;8.818;2022-08-21T15:40:45;4.43;;;1.92;;
50547;SDS011;38013;48.810;8.818;2022-08-21T15:43:33;4.85;;;1.83;;
50547;SDS011;38013;48.810;8.818;2022-08-21T15:46:12;6.63;;;1.95;;
50547;SDS011;38013;48.810;8.818;2022-08-21T15:48:40;3.42;;;1.50;;
50547;SDS011;38013;48.810;8.818;2022-08-21T15:51:07;4.13;;;1.85;;
50547;SDS011;38013;48.810;8.818;2022-08-21T15:53:35;4.32;;;1.70;;
50547;SDS011;38013;48.810;8.818;2022-08-21T15:56:04;4.57;;;1.83;;
50547;SDS011;38013;48.810;8.818;2022-08-21T15:58:31;5.28;;;1.85;;
50547;SDS011;38013;48.810;8.818;2022-08-21T16:01:00;7.65;;;1.90;;
50547;SDS011;38013;48.810;8.818;2022-08-21T16:05:53;3.83;;;1.60;;
50547;SDS011;38013;48.810;8.818;2022-08-21T16:08:21;4.32;;;1.90;;
50547;SDS011;38013;48.810;8.818;2022-08-21T16:10:47;7.10;;;2.08;;
50547;SDS011;38013;48.810;8.818;2022-08-21T16:13:16;3.30;;;1.50;;
50547;SDS011;38013;48.810;8.818;2022-08-21T16:15:51;3.78;;;1.80;;
50547;SDS011;38013;48.810;8.818;2022-08-21T16:18:17;4.20;;;1.60;;
50547;SDS011;38013;48.810;8.818;2022-08-21T16:20:44;3.90;;;1.58;;
50547;SDS011;38013;48.810;8.818;2022-08-21T16:23:10;11.43;;;2.10;;
50547;SDS011;38013;48.810;8.818;2022-08-21T16:25:36;4.50;;;1.90;;
50547;SDS011;38013;48.810;8.818;2022-08-21T16:28:04;5.05;;;1.77;;
50547;SDS011;38013;48.810;8.818;2022-08-21T16:30:32;5.85;;;1.60;;
50547;SDS011;38013;48.810;8.818;2022-08-21T16:33:00;4.20;;;1.60;;
50547;SDS011;38013;48.810;8.818;2022-08-21T16:35:28;4.37;;;1.73;;
50547;SDS011;38013;48.810;8.818;2022-08-21T16:37:55;5.40;;;1.85;;
50547;SDS011;38013;48.810;8.818;2022-08-21T16:40:21;4.47;;;1.65;;